sensor_id;sensor_type;location;lat;lon;timestamp;pressure;altitude;pressure_sealevel;temperature;humidity
6532;BME280;3299;42.004;24.868;2023-01-05T00:01:04;99038.31;;;9.43;100.00
6532;BME280;3299;42.004;24.868;2023-01-05T00:03:30;99062.16;;;9.63;100.00
6532;BME280;3299;42.004;24.868;2023-01-05T00:06:03;99078.84;;;9.73;100.00
6532;BME280;3299;42.004;24.868;2023-01-05T00:08:29;99024.41;;;9.46;100.00
6532;BME280;3299;42.004;24.868;2023-01-05T00:10:55;99075.25;;;9.76;100.00
6532;BME280;3299;42.004;24.868;2023-01-05T00:13:39;99045.41;;;9.55;100.00
6532;BME280;3299;42.004;24.868;2023-01-05T00:16:23;99024.69;;;9.41;100.00
6532;BME280;3299;42.004;24.868;2023-01-05T00:19:10;99075.41;;;9.73;100.00
6532;BME280;3299;42.004;24.868;2023-01-05T00:21:55;99073.75;;;9.72;100.00
6532;BME280;3299;42.004;24.868;2023-01-05T00:24:40;99075.41;;;9.73;100.00
6532;BME280;3299;42.004;24.868;2023-01-05T00:27:05;99066.06;;;9.55;100.00
6532;BME280;3299;42.004;24.868;2023-01-05T00:29:30;99069.19;;;9.62;100.00
6532;BME280;3299;42.004;24.868;2023-01-05T00:31:56;99069.44;;;9.57;100.00
6532;BME280;3299;42.004;24.868;2023-01-05T00:34:21;99060.91;;;9.55;100.00
6532;BME280;3299;42.004;24.868;2023-01-05T00:36:46;99075.00;;;9.65;100.00
6532;BME280;3299;42.004;24.868;2023-01-05T00:39:12;98978.75;;;9.15;100.00
6532;BME280;3299;42.004;24.868;2023-01-05T00:41:37;99010.59;;;9.31;100.00
6532;BME280;3299;42.004;24.868;2023-01-05T00:44:03;99034.16;;;9.41;100.00
6532;BME280;3299;42.004;24.868;2023-01-05T00:46:28;99030.66;;;9.42;100.00
6532;BME280;3299;42.004;24.868;2023-01-05T00:48:53;99016.25;;;9.38;100.00
6532;BME280;3299;42.004;24.868;2023-01-05T00:51:19;99058.25;;;9.72;100.00
6532;BME280;3299;42.004;24.868;2023-01-05T00:53:47;99067.78;;;9.72;100.00
6532;BME280;3299;42.004;24.868;2023-01-05T00:56:12;98979.34;;;9.20;100.00
6532;BME280;3299;42.004;24.868;2023-01-05T00:58:37;99049.25;;;9.63;100.00
6532;BME280;3299;42.004;24.868;2023-01-05T01:01:08;99037.31;;;9.61;100.00
6532;BME280;3299;42.004;24.868;2023-01-05T01:03:34;99018.59;;;9.42;100.00
6532;BME280;3299;42.004;24.868;2023-01-05T01:05:59;99037.66;;;9.55;100.00
6532;BME280;3299;42.004;24.868;2023-01-05T01:08:24;99001.25;;;9.29;100.00
6532;BME280;3299;42.004;24.868;2023-01-05T01:10:50;99048.19;;;9.52;100.00
6532;BME280;3299;42.004;24.868;2023-01-05T01:13:15;98981.31;;;9.15;100.00
6532;BME280;3299;42.004;24.868;2023-01-05T01:15:41;99038.84;;;9.50;100.00
6532;BME280;3299;42.004;24.868;2023-01-05T01:18:06;98983.09;;;9.15;100.00
6532;BME280;3299;42.004;24.868;2023-01-05T01:20:32;99014.16;;;9.29;100.00
6532;BME280;3299;42.004;24.868;2023-01-05T01:22:57;98943.00;;;8.92;100.00
6532;BME280;3299;42.004;24.868;2023-01-05T01:25:25;99015.25;;;9.40;100.00
6532;BME280;3299;42.004;24.868;2023-01-05T01:27:50;99030.44;;;9.46;100.00
6532;BME280;3299;42.004;24.868;2023-01-05T01:30:16;98993.75;;;9.24;100.00
6532;BME280;3299;42.004;24.868;2023-01-05T01:32:41;99009.66;;;9.32;100.00
6532;BME280;3299;42.004;24.868;2023-01-05T01:35:07;99019.66;;;9.38;100.00
6532;BME280;3299;42.004;24.868;2023-01-05T01:37:32;99011.50;;;9.30;100.00
6532;BME280;3299;42.004;24.868;2023-01-05T01:39:58;98979.25;;;9.06;100.00
6532;BME280;3299;42.004;24.868;2023-01-05T01:42:23;98967.50;;;9.01;100.00
6532;BME280;3299;42.004;24.868;2023-01-05T01:44:53;99010.59;;;9.31;100.00
6532;BME280;3299;42.004;24.868;2023-01-05T01:49:56;98957.16;;;9.01;100.00
6532;BME280;3299;42.004;24.868;2023-01-05T01:52:25;98953.09;;;8.97;100.00
6532;BME280;3299;42.004;24.868;2023-01-05T01:54:52;98999.59;;;9.28;100.00
6532;BME280;3299;42.004;24.868;2023-01-05T01:57:17;98995.34;;;9.27;100.00
6532;BME280;3299;42.004;24.868;2023-01-05T01:59:43;98983.44;;;9.24;100.00
6532;BME280;3299;42.004;24.868;2023-01-05T02:02:10;98944.44;;;9.13;100.00
6532;BME280;3299;42.004;24.868;2023-01-05T02:04:36;98996.59;;;9.35;100.00
6532;BME280;3299;42.004;24.868;2023-01-05T02:07:02;98990.31;;;9.39;100.00
6532;BME280;3299;42.004;24.868;2023-01-05T02:09:27;98923.72;;;8.99;100.00
6532;BME280;3299;42.004;24.868;2023-01-05T02:17:49;98977.75;;;9.33;100.00
6532;BME280;3299;42.004;24.868;2023-01-05T02:29:22;98959.59;;;9.19;100.00
6532;BME280;3299;42.004;24.868;2023-01-05T02:31:59;98944.78;;;9.07;100.00
6532;BME280;3299;42.004;24.868;2023-01-05T02:34:36;98965.75;;;9.17;100.00
6532;BME280;3299;42.004;24.868;2023-01-05T02:37:17;98963.84;;;9.20;100.00
6532;BME280;3299;42.004;24.868;2023-01-05T02:39:56;98920.69;;;8.91;100.00
6532;BME280;3299;42.004;24.868;2023-01-05T02:42:24;98938.28;;;9.00;100.00
6532;BME280;3299;42.004;24.868;2023-01-05T02:44:51;98903.75;;;8.87;100.00
6532;BME280;3299;42.004;24.868;2023-01-05T02:49:59;98943.06;;;8.75;100.00
6532;BME280;3299;42.004;24.868;2023-01-05T02:52:26;98957.00;;;8.88;100.00
6532;BME280;3299;42.004;24.868;2023-01-05T02:55:03;98952.25;;;8.81;100.00
6532;BME280;3299;42.004;24.868;2023-01-05T02:57:45;98900.84;;;8.45;100.00
6532;BME280;3299;42.004;24.868;2023-01-05T03:02:50;98936.44;;;8.71;100.00
6532;BME280;3299;42.004;24.868;2023-01-05T03:05:31;98891.25;;;8.32;100.00
6532;BME280;3299;42.004;24.868;2023-01-05T03:08:00;98904.53;;;8.24;100.00
6532;BME280;3299;42.004;24.868;2023-01-05T03:10:38;98948.63;;;8.52;100.00
6532;BME280;3299;42.004;24.868;2023-01-05T03:13:28;98902.31;;;8.17;100.00
6532;BME280;3299;42.004;24.868;2023-01-05T03:16:15;98939.69;;;8.42;100.00
6532;BME280;3299;42.004;24.868;2023-01-05T03:18:43;98928.34;;;8.29;100.00
6532;BME280;3299;42.004;24.868;2023-01-05T03:21:28;98874.66;;;8.03;100.00
6532;BME280;3299;42.004;24.868;2023-01-05T03:23:55;98819.19;;;7.64;100.00
6532;BME280;3299;42.004;24.868;2023-01-05T03:26:41;98917.13;;;8.30;100.00
6532;BME280;3299;42.004;24.868;2023-01-05T03:29:26;98915.00;;;8.21;100.00
6532;BME280;3299;42.004;24.868;2023-01-05T03:32:22;98925.00;;;8.27;100.00
6532;BME280;3299;42.004;24.868;2023-01-05T03:35:11;98822.13;;;7.56;100.00
6532;BME280;3299;42.004;24.868;2023-01-05T03:40:29;98917.41;;;8.07;100.00
6532;BME280;3299;42.004;24.868;2023-01-05T03:42:56;98895.16;;;7.89;100.00
6532;BME280;3299;42.004;24.868;2023-01-05T03:45:23;98873.56;;;7.58;100.00
6532;BME280;3299;42.004;24.868;2023-01-05T03:47:49;98903.94;;;7.68;100.00
6532;BME280;3299;42.004;24.868;2023-01-05T03:50:15;98851.44;;;7.37;100.00
6532;BME280;3299;42.004;24.868;2023-01-05T03:52:41;98898.41;;;7.59;100.00
6532;BME280;3299;42.004;24.868;2023-01-05T03:55:07;98843.47;;;7.07;100.00
6532;BME280;3299;42.004;24.868;2023-01-05T03:57:32;98804.53;;;6.96;100.00
6532;BME280;3299;42.004;24.868;2023-01-05T03:59:58;98856.06;;;7.30;100.00
6532;BME280;3299;42.004;24.868;2023-01-05T04:02:23;98885.28;;;7.46;100.00
6532;BME280;3299;42.004;24.868;2023-01-05T04:04:48;98880.53;;;7.39;100.00
6532;BME280;3299;42.004;24.868;2023-01-05T04:07:14;98861.56;;;7.23;100.00
6532;BME280;3299;42.004;24.868;2023-01-05T04:09:39;98855.63;;;7.21;100.00
6532;BME280;3299;42.004;24.868;2023-01-05T04:12:05;98852.47;;;7.16;100.00
6532;BME280;3299;42.004;24.868;2023-01-05T04:14:30;98805.88;;;6.86;100.00
6532;BME280;3299;42.004;24.868;2023-01-05T04:16:55;98854.56;;;7.08;100.00
6532;BME280;3299;42.004;24.868;2023-01-05T04:19:21;98898.22;;;7.28;100.00
6532;BME280;3299;42.004;24.868;2023-01-05T04:21:46;98843.47;;;7.07;100.00
6532;BME280;3299;42.004;24.868;2023-01-05T04:24:12;98866.78;;;7.21;100.00
6532;BME280;3299;42.004;24.868;2023-01-05T04:26:37;98832.16;;;6.93;100.00
6532;BME280;3299;42.004;24.868;2023-01-05T04:29:04;98880.84;;;7.14;100.00
6532;BME280;3299;42.004;24.868;2023-01-05T04:31:29;98866.28;;;6.96;100.00
6532;BME280;3299;42.004;24.868;2023-01-05T04:33:55;98828.22;;;6.67;100.00
6532;BME280;3299;42.004;24.868;2023-01-05T04:36:20;98880.28;;;7.08;100.00
6532;BME280;3299;42.004;24.868;2023-01-05T04:38:45;98843.25;;;6.93;100.00
6532;BME280;3299;42.004;24.868;2023-01-05T04:41:11;98830.06;;;6.82;100.00
6532;BME280;3299;42.004;24.868;2023-01-05T04:43:37;98885.31;;;7.11;100.00
6532;BME280;3299;42.004;24.868;2023-01-05T04:46:02;98808.81;;;6.79;100.00
6532;BME280;3299;42.004;24.868;2023-01-05T04:48:27;98818.44;;;6.92;100.00
6532;BME280;3299;42.004;24.868;2023-01-05T04:50:54;98839.81;;;7.11;100.00
6532;BME280;3299;42.004;24.868;2023-01-05T04:53:20;98868.44;;;7.22;100.00
6532;BME280;3299;42.004;24.868;2023-01-05T04:55:47;98872.84;;;7.20;100.00
6532;BME280;3299;42.004;24.868;2023-01-05T04:58:12;98819.38;;;6.73;100.00
6532;BME280;3299;42.004;24.868;2023-01-05T05:00:38;98815.09;;;6.55;100.00
6532;BME280;3299;42.004;24.868;2023-01-05T05:03:03;98823.09;;;6.67;100.00
6532;BME280;3299;42.004;24.868;2023-01-05T05:05:29;98870.22;;;7.03;100.00
6532;BME280;3299;42.004;24.868;2023-01-05T05:07:54;98858.75;;;6.92;100.00
6532;BME280;3299;42.004;24.868;2023-01-05T05:10:19;98872.63;;;6.89;100.00
6532;BME280;3299;42.004;24.868;2023-01-05T05:12:45;98865.59;;;6.93;100.00
6532;BME280;3299;42.004;24.868;2023-01-05T05:15:11;98812.41;;;6.58;100.00
6532;BME280;3299;42.004;24.868;2023-01-05T05:17:36;98855.16;;;6.77;100.00
6532;BME280;3299;42.004;24.868;2023-01-05T05:20:02;98839.03;;;6.74;100.00
6532;BME280;3299;42.004;24.868;2023-01-05T05:22:27;98799.38;;;6.42;100.00
6532;BME280;3299;42.004;24.868;2023-01-05T05:24:53;98791.22;;;6.34;100.00
6532;BME280;3299;42.004;24.868;2023-01-05T05:27:18;98813.09;;;6.61;100.00
6532;BME280;3299;42.004;24.868;2023-01-05T05:29:44;98794.81;;;6.49;100.00
6532;BME280;3299;42.004;24.868;2023-01-05T05:32:12;98786.59;;;6.59;100.00
6532;BME280;3299;42.004;24.868;2023-01-05T05:34:37;98792.94;;;6.52;100.00
6532;BME280;3299;42.004;24.868;2023-01-05T05:37:02;98850.00;;;6.77;100.00
6532;BME280;3299;42.004;24.868;2023-01-05T05:39:28;98828.56;;;6.60;100.00
6532;BME280;3299;42.004;24.868;2023-01-05T05:41:53;98857.44;;;6.83;100.00
6532;BME280;3299;42.004;24.868;2023-01-05T05:44:18;98791.63;;;6.44;100.00
6532;BME280;3299;42.004;24.868;2023-01-05T05:46:44;98826.06;;;6.58;100.00
6532;BME280;3299;42.004;24.868;2023-01-05T05:49:09;98783.63;;;6.50;100.00
6532;BME280;3299;42.004;24.868;2023-01-05T05:51:35;98837.72;;;6.84;100.00
6532;BME280;3299;42.004;24.868;2023-01-05T05:54:00;98835.31;;;6.81;100.00
6532;BME280;3299;42.004;24.868;2023-01-05T05:56:25;98783.50;;;6.53;100.00
6532;BME280;3299;42.004;24.868;2023-01-05T05:58:51;98827.03;;;6.74;100.00
6532;BME280;3299;42.004;24.868;2023-01-05T06:01:16;98844.34;;;6.71;100.00
6532;BME280;3299;42.004;24.868;2023-01-05T06:03:42;98778.63;;;6.28;100.00
6532;BME280;3299;42.004;24.868;2023-01-05T06:06:07;98791.22;;;6.34;100.00
6532;BME280;3299;42.004;24.868;2023-01-05T06:08:33;98832.13;;;6.57;100.00
6532;BME280;3299;42.004;24.868;2023-01-05T06:10:59;98849.06;;;6.61;100.00
6532;BME280;3299;42.004;24.868;2023-01-05T06:13:24;98833.66;;;6.61;100.00
6532;BME280;3299;42.004;24.868;2023-01-05T06:15:50;98787.38;;;6.24;100.00
6532;BME280;3299;42.004;24.868;2023-01-05T06:18:16;98817.25;;;6.45;100.00
6532;BME280;3299;42.004;24.868;2023-01-05T06:20:42;98734.91;;;6.11;100.00
6532;BME280;3299;42.004;24.868;2023-01-05T06:23:07;98791.13;;;6.54;100.00
6532;BME280;3299;42.004;24.868;2023-01-05T06:25:33;98838.56;;;6.84;100.00
6532;BME280;3299;42.004;24.868;2023-01-05T06:27:59;98837.16;;;6.77;100.00
6532;BME280;3299;42.004;24.868;2023-01-05T06:30:25;98792.47;;;6.44;100.00
6532;BME280;3299;42.004;24.868;2023-01-05T06:32:51;98795.38;;;6.37;100.00
6532;BME280;3299;42.004;24.868;2023-01-05T06:35:16;98847.44;;;6.77;100.00
6532;BME280;3299;42.004;24.868;2023-01-05T06:37:42;98812.81;;;6.67;100.00
6532;BME280;3299;42.004;24.868;2023-01-05T06:40:08;98792.88;;;6.54;100.00
6532;BME280;3299;42.004;24.868;2023-01-05T06:42:36;98784.41;;;6.52;100.00
6532;BME280;3299;42.004;24.868;2023-01-05T06:45:01;98860.84;;;7.02;100.00
6532;BME280;3299;42.004;24.868;2023-01-05T06:47:26;98783.84;;;6.64;100.00
6532;BME280;3299;42.004;24.868;2023-01-05T06:49:52;98828.00;;;6.90;100.00
6532;BME280;3299;42.004;24.868;2023-01-05T06:52:17;98797.59;;;6.80;100.00
6532;BME280;3299;42.004;24.868;2023-01-05T06:54:43;98780.13;;;6.69;100.00
6532;BME280;3299;42.004;24.868;2023-01-05T06:57:08;98851.00;;;7.10;100.00
6532;BME280;3299;42.004;24.868;2023-01-05T06:59:34;98749.84;;;6.57;100.00
6532;BME280;3299;42.004;24.868;2023-01-05T07:02:00;98847.41;;;7.31;100.00
6532;BME280;3299;42.004;24.868;2023-01-05T07:04:25;98792.38;;;7.17;100.00
6532;BME280;3299;42.004;24.868;2023-01-05T07:06:50;98835.53;;;7.46;100.00
6532;BME280;3299;42.004;24.868;2023-01-05T07:09:16;98772.47;;;7.03;100.00
6532;BME280;3299;42.004;24.868;2023-01-05T07:11:41;98818.50;;;7.43;100.00
6532;BME280;3299;42.004;24.868;2023-01-05T07:14:09;98760.66;;;7.16;100.00
6532;BME280;3299;42.004;24.868;2023-01-05T07:16:34;98810.78;;;7.43;100.00
6532;BME280;3299;42.004;24.868;2023-01-05T07:19:00;98658.97;;;6.58;100.00
6532;BME280;3299;42.004;24.868;2023-01-05T07:21:25;98739.41;;;7.13;100.00
6532;BME280;3299;42.004;24.868;2023-01-05T07:23:50;98800.00;;;7.52;100.00
6532;BME280;3299;42.004;24.868;2023-01-05T07:26:16;98743.50;;;7.34;100.00
6532;BME280;3299;42.004;24.868;2023-01-05T07:28:41;98788.94;;;7.67;100.00
6532;BME280;3299;42.004;24.868;2023-01-05T07:31:07;98735.22;;;7.44;100.00
6532;BME280;3299;42.004;24.868;2023-01-05T07:33:34;98773.59;;;7.81;100.00
6532;BME280;3299;42.004;24.868;2023-01-05T07:36:00;98745.53;;;7.77;100.00
6532;BME280;3299;42.004;24.868;2023-01-05T07:38:26;98727.06;;;7.69;100.00
6532;BME280;3299;42.004;24.868;2023-01-05T07:40:51;98783.56;;;8.04;100.00
6532;BME280;3299;42.004;24.868;2023-01-05T07:43:17;98770.78;;;8.03;100.00
6532;BME280;3299;42.004;24.868;2023-01-05T07:45:42;98774.03;;;8.06;100.00
6532;BME280;3299;42.004;24.868;2023-01-05T07:48:08;98740.56;;;7.89;100.00
6532;BME280;3299;42.004;24.868;2023-01-05T07:50:34;98708.56;;;7.78;100.00
6532;BME280;3299;42.004;24.868;2023-01-05T07:52:59;98720.72;;;7.91;100.00
6532;BME280;3299;42.004;24.868;2023-01-05T07:55:25;98715.09;;;8.00;100.00
6532;BME280;3299;42.004;24.868;2023-01-05T07:57:50;98770.44;;;8.41;100.00
6532;BME280;3299;42.004;24.868;2023-01-05T08:00:16;98697.13;;;8.14;100.00
6532;BME280;3299;42.004;24.868;2023-01-05T08:09:25;98703.88;;;8.32;100.00
6532;BME280;3299;42.004;24.868;2023-01-05T08:12:09;98749.19;;;8.67;100.00
6532;BME280;3299;42.004;24.868;2023-01-05T08:14:34;98767.31;;;8.81;100.00
6532;BME280;3299;42.004;24.868;2023-01-05T08:16:59;98735.72;;;8.62;100.00
6532;BME280;3299;42.004;24.868;2023-01-05T08:19:25;98695.91;;;8.52;100.00
6532;BME280;3299;42.004;24.868;2023-01-05T08:21:50;98746.53;;;8.98;100.00
6532;BME280;3299;42.004;24.868;2023-01-05T08:24:15;98699.75;;;8.75;100.00
6532;BME280;3299;42.004;24.868;2023-01-05T08:26:41;98736.78;;;9.03;100.00
6532;BME280;3299;42.004;24.868;2023-01-05T08:29:06;98742.59;;;9.22;100.00
6532;BME280;3299;42.004;24.868;2023-01-05T08:31:32;98753.56;;;9.40;100.00
6532;BME280;3299;42.004;24.868;2023-01-05T08:34:02;98692.41;;;9.26;99.93
6532;BME280;3299;42.004;24.868;2023-01-05T08:36:28;98749.03;;;9.73;99.03
6532;BME280;3299;42.004;24.868;2023-01-05T08:38:55;98724.91;;;9.72;97.48
6532;BME280;3299;42.004;24.868;2023-01-05T08:41:25;98630.56;;;9.39;95.96
6532;BME280;3299;42.004;24.868;2023-01-05T08:43:55;98737.22;;;10.10;95.12
6532;BME280;3299;42.004;24.868;2023-01-05T08:46:23;98665.22;;;9.90;93.49
6532;BME280;3299;42.004;24.868;2023-01-05T08:48:51;98709.56;;;10.25;93.51
6532;BME280;3299;42.004;24.868;2023-01-05T08:51:17;98668.78;;;10.16;93.41
6532;BME280;3299;42.004;24.868;2023-01-05T08:53:42;98713.75;;;10.54;92.24
6532;BME280;3299;42.004;24.868;2023-01-05T08:56:08;98669.47;;;10.32;91.18
6532;BME280;3299;42.004;24.868;2023-01-05T08:58:38;98638.25;;;10.35;91.45
6532;BME280;3299;42.004;24.868;2023-01-05T09:01:07;98644.09;;;10.51;91.60
6532;BME280;3299;42.004;24.868;2023-01-05T09:03:32;98685.50;;;10.90;91.26
6532;BME280;3299;42.004;24.868;2023-01-05T09:05:58;98672.47;;;11.04;89.64
6532;BME280;3299;42.004;24.868;2023-01-05T09:08:27;98673.31;;;11.17;88.28
6532;BME280;3299;42.004;24.868;2023-01-05T09:10:53;98673.22;;;11.31;88.55
6532;BME280;3299;42.004;24.868;2023-01-05T09:13:18;98662.25;;;11.40;87.00
6532;BME280;3299;42.004;24.868;2023-01-05T09:15:44;98661.41;;;11.52;86.96
6532;BME280;3299;42.004;24.868;2023-01-05T09:18:09;98656.75;;;11.57;86.50
6532;BME280;3299;42.004;24.868;2023-01-05T09:20:34;98576.56;;;11.18;85.88
6532;BME280;3299;42.004;24.868;2023-01-05T09:23:00;98652.59;;;11.79;84.74
6532;BME280;3299;42.004;24.868;2023-01-05T09:25:25;98590.00;;;11.48;84.64
6532;BME280;3299;42.004;24.868;2023-01-05T09:27:50;98586.38;;;11.63;84.19
6532;BME280;3299;42.004;24.868;2023-01-05T09:30:16;98603.84;;;11.84;83.51
6532;BME280;3299;42.004;24.868;2023-01-05T09:32:41;98590.78;;;11.86;82.89
6532;BME280;3299;42.004;24.868;2023-01-05T09:35:07;98594.25;;;11.97;82.52
6532;BME280;3299;42.004;24.868;2023-01-05T09:37:33;98596.81;;;12.10;82.22
6532;BME280;3299;42.004;24.868;2023-01-05T09:39:58;98592.34;;;12.12;82.50
6532;BME280;3299;42.004;24.868;2023-01-05T09:42:25;98634.56;;;12.37;82.42
6532;BME280;3299;42.004;24.868;2023-01-05T09:45:03;98587.13;;;12.12;82.48
6532;BME280;3299;42.004;24.868;2023-01-05T09:47:39;98640.84;;;12.46;83.40
6532;BME280;3299;42.004;24.868;2023-01-05T09:50:07;98631.22;;;12.48;82.80
6532;BME280;3299;42.004;24.868;2023-01-05T09:52:37;98610.09;;;12.29;83.50
6532;BME280;3299;42.004;24.868;2023-01-05T09:55:13;98619.59;;;12.41;84.62
6532;BME280;3299;42.004;24.868;2023-01-05T09:57:39;98595.28;;;12.31;84.76
6532;BME280;3299;42.004;24.868;2023-01-05T10:00:06;98551.47;;;12.15;84.77
6532;BME280;3299;42.004;24.868;2023-01-05T10:03:01;98594.88;;;12.48;84.89
6532;BME280;3299;42.004;24.868;2023-01-05T10:05:28;98504.66;;;11.93;85.52
6532;BME280;3299;42.004;24.868;2023-01-05T10:08:04;98580.97;;;12.49;86.20
6532;BME280;3299;42.004;24.868;2023-01-05T10:11:04;98576.97;;;12.56;85.67
6532;BME280;3299;42.004;24.868;2023-01-05T10:14:14;98559.28;;;12.61;84.79
6532;BME280;3299;42.004;24.868;2023-01-05T10:16:43;98553.34;;;12.48;84.23
6532;BME280;3299;42.004;24.868;2023-01-05T10:19:18;98494.75;;;12.22;84.59
6532;BME280;3299;42.004;24.868;2023-01-05T10:21:57;98544.53;;;12.61;84.32
6532;BME280;3299;42.004;24.868;2023-01-05T10:29:52;98524.84;;;12.81;83.07
6532;BME280;3299;42.004;24.868;2023-01-05T10:37:44;98501.50;;;12.92;82.76
6532;BME280;3299;42.004;24.868;2023-01-05T10:45:36;98439.63;;;12.75;81.16
6532;BME280;3299;42.004;24.868;2023-01-05T10:48:02;98434.56;;;12.84;80.54
6532;BME280;3299;42.004;24.868;2023-01-05T10:50:29;98484.06;;;13.16;80.59
6532;BME280;3299;42.004;24.868;2023-01-05T10:52:57;98485.94;;;13.25;80.29
6532;BME280;3299;42.004;24.868;2023-01-05T10:55:23;98418.69;;;13.00;79.10
6532;BME280;3299;42.004;24.868;2023-01-05T10:57:49;98472.22;;;13.34;79.44
6532;BME280;3299;42.004;24.868;2023-01-05T11:00:17;98431.13;;;13.17;78.56
6532;BME280;3299;42.004;24.868;2023-01-05T11:03:12;98473.38;;;13.52;78.48
6532;BME280;3299;42.004;24.868;2023-01-05T11:05:42;98470.31;;;13.47;78.59
6532;BME280;3299;42.004;24.868;2023-01-05T11:08:28;98476.44;;;13.57;77.90
6532;BME280;3299;42.004;24.868;2023-01-05T11:11:00;98451.06;;;13.49;77.32
6532;BME280;3299;42.004;24.868;2023-01-05T11:15:59;98420.25;;;13.34;77.99
6532;BME280;3299;42.004;24.868;2023-01-05T11:18:45;98441.75;;;13.47;78.53
6532;BME280;3299;42.004;24.868;2023-01-05T11:21:24;98474.75;;;13.67;77.77
6532;BME280;3299;42.004;24.868;2023-01-05T11:23:53;98464.25;;;13.68;76.81
6532;BME280;3299;42.004;24.868;2023-01-05T11:31:35;98433.53;;;13.62;77.89
6532;BME280;3299;42.004;24.868;2023-01-05T11:34:06;98413.25;;;13.45;77.88
6532;BME280;3299;42.004;24.868;2023-01-05T11:36:33;98378.66;;;13.34;78.17
6532;BME280;3299;42.004;24.868;2023-01-05T11:38:58;98367.84;;;13.29;77.71
6532;BME280;3299;42.004;24.868;2023-01-05T11:41:24;98404.72;;;13.54;78.12
6532;BME280;3299;42.004;24.868;2023-01-05T11:43:51;98413.09;;;13.58;78.09
6532;BME280;3299;42.004;24.868;2023-01-05T11:46:18;98405.28;;;13.58;77.52
6532;BME280;3299;42.004;24.868;2023-01-05T11:48:51;98363.06;;;13.34;77.45
6532;BME280;3299;42.004;24.868;2023-01-05T11:51:38;98412.88;;;13.50;77.60
6532;BME280;3299;42.004;24.868;2023-01-05T11:54:05;98359.69;;;13.22;78.19
6532;BME280;3299;42.004;24.868;2023-01-05T11:56:32;98375.16;;;13.35;78.58
6532;BME280;3299;42.004;24.868;2023-01-05T11:58:58;98359.44;;;13.25;78.46
6532;BME280;3299;42.004;24.868;2023-01-05T12:01:45;98358.06;;;13.21;77.71
6532;BME280;3299;42.004;24.868;2023-01-05T12:09:31;98403.66;;;13.46;78.68
6532;BME280;3299;42.004;24.868;2023-01-05T12:12:19;98386.91;;;13.39;79.00
6532;BME280;3299;42.004;24.868;2023-01-05T12:18:00;98384.22;;;13.40;77.47
6532;BME280;3299;42.004;24.868;2023-01-05T12:34:26;98363.88;;;12.59;82.50
6532;BME280;3299;42.004;24.868;2023-01-05T12:37:59;98362.00;;;12.50;82.92
6532;BME280;3299;42.004;24.868;2023-01-05T12:42:54;98350.94;;;12.48;83.13
6532;BME280;3299;42.004;24.868;2023-01-05T12:48:30;98366.72;;;12.56;80.58
6532;BME280;3299;42.004;24.868;2023-01-05T12:53:58;98352.47;;;12.50;82.91
6532;BME280;3299;42.004;24.868;2023-01-05T12:56:29;98295.00;;;12.11;83.09
6532;BME280;3299;42.004;24.868;2023-01-05T12:59:23;98350.19;;;12.46;83.70
6532;BME280;3299;42.004;24.868;2023-01-05T13:07:23;98230.66;;;11.72;84.22
6532;BME280;3299;42.004;24.868;2023-01-05T13:09:56;98343.84;;;12.39;85.10
6532;BME280;3299;42.004;24.868;2023-01-05T13:12:23;98295.00;;;12.11;85.41
6532;BME280;3299;42.004;24.868;2023-01-05T13:15:12;98346.44;;;12.39;85.33
6532;BME280;3299;42.004;24.868;2023-01-05T13:17:45;98355.38;;;12.35;85.88
6532;BME280;3299;42.004;24.868;2023-01-05T13:20:38;98306.91;;;12.02;86.48
6532;BME280;3299;42.004;24.868;2023-01-05T13:23:16;98337.69;;;12.18;87.60
6532;BME280;3299;42.004;24.868;2023-01-05T13:25:50;98341.13;;;12.18;88.16
6532;BME280;3299;42.004;24.868;2023-01-05T13:28:20;98292.66;;;11.97;87.87
6532;BME280;3299;42.004;24.868;2023-01-05T13:33:46;98338.41;;;12.20;87.76
6532;BME280;3299;42.004;24.868;2023-01-05T13:44:52;98339.09;;;12.11;88.62
6532;BME280;3299;42.004;24.868;2023-01-05T13:53:16;98290.16;;;11.95;83.75
6532;BME280;3299;42.004;24.868;2023-01-05T13:55:57;98295.84;;;12.00;82.91
6532;BME280;3299;42.004;24.868;2023-01-05T14:01:19;98283.47;;;12.15;81.13
6532;BME280;3299;42.004;24.868;2023-01-05T14:03:57;98257.28;;;12.18;79.95
6532;BME280;3299;42.004;24.868;2023-01-05T14:06:25;98295.00;;;12.33;81.70
6532;BME280;3299;42.004;24.868;2023-01-05T14:21:08;98305.03;;;12.04;85.44
6532;BME280;3299;42.004;24.868;2023-01-05T14:25:57;98310.06;;;11.95;86.97
6532;BME280;3299;42.004;24.868;2023-01-05T14:36:30;98296.31;;;11.49;88.33
6532;BME280;3299;42.004;24.868;2023-01-05T14:39:01;98240.09;;;11.04;89.44
6532;BME280;3299;42.004;24.868;2023-01-05T14:41:28;98290.34;;;11.36;89.94
6532;BME280;3299;42.004;24.868;2023-01-05T14:44:03;98291.25;;;11.24;89.61
6532;BME280;3299;42.004;24.868;2023-01-05T14:46:52;98282.50;;;11.14;89.31
6532;BME280;3299;42.004;24.868;2023-01-05T14:52:13;98265.44;;;10.88;89.68
6532;BME280;3299;42.004;24.868;2023-01-05T15:00:13;98237.28;;;10.60;88.28
6532;BME280;3299;42.004;24.868;2023-01-05T15:05:16;98223.22;;;10.64;85.03
6532;BME280;3299;42.004;24.868;2023-01-05T15:07:58;98206.47;;;10.57;83.63
6532;BME280;3299;42.004;24.868;2023-01-05T15:13:20;98269.06;;;10.85;83.28
6532;BME280;3299;42.004;24.868;2023-01-05T15:16:02;98264.66;;;10.75;84.67
6532;BME280;3299;42.004;24.868;2023-01-05T15:21:18;98265.13;;;10.56;85.76
6532;BME280;3299;42.004;24.868;2023-01-05T15:32:33;98252.19;;;10.33;86.21
6532;BME280;3299;42.004;24.868;2023-01-05T15:37:38;98181.44;;;9.73;86.26
6532;BME280;3299;42.004;24.868;2023-01-05T15:40:12;98276.50;;;10.30;87.14
6532;BME280;3299;42.004;24.868;2023-01-05T15:42:56;98224.19;;;10.02;87.05
6532;BME280;3299;42.004;24.868;2023-01-05T15:45:27;98262.88;;;10.16;86.50
6532;BME280;3299;42.004;24.868;2023-01-05T15:48:00;98225.03;;;9.90;86.93
6532;BME280;3299;42.004;24.868;2023-01-05T15:50:36;98279.38;;;10.38;86.86
6532;BME280;3299;42.004;24.868;2023-01-05T15:53:02;98261.78;;;10.43;84.75
6532;BME280;3299;42.004;24.868;2023-01-05T15:55:29;98260.31;;;10.52;83.12
6532;BME280;3299;42.004;24.868;2023-01-05T15:57:57;98259.59;;;10.50;82.58
6532;BME280;3299;42.004;24.868;2023-01-05T16:00:27;98276.59;;;10.65;81.00
6532;BME280;3299;42.004;24.868;2023-01-05T16:02:52;98282.44;;;10.56;82.00
6532;BME280;3299;42.004;24.868;2023-01-05T16:05:23;98270.56;;;10.41;82.86